sensor_id;sensor_type;location;lat;lon;timestamp;temperature;humidity
67804;SHT31;54603;45.638;11.714;2023-05-16T00:00:19;19.93;72.40
67804;SHT31;54603;45.638;11.714;2023-05-16T00:02:45;19.92;72.39
67804;SHT31;54603;45.638;11.714;2023-05-16T00:05:12;19.92;72.40
67804;SHT31;54603;45.638;11.714;2023-05-16T00:07:42;19.91;72.39
67804;SHT31;54603;45.638;11.714;2023-05-16T00:10:10;19.91;72.40
67804;SHT31;54603;45.638;11.714;2023-05-16T00:12:36;19.91;72.40
67804;SHT31;54603;45.638;11.714;2023-05-16T00:15:04;19.92;72.40
67804;SHT31;54603;45.638;11.714;2023-05-16T00:17:33;19.91;72.39
67804;SHT31;54603;45.638;11.714;2023-05-16T00:20:00;19.90;72.38
67804;SHT31;54603;45.638;11.714;2023-05-16T00:22:33;19.90;72.37
67804;SHT31;54603;45.638;11.714;2023-05-16T00:24:59;19.90;72.40
67804;SHT31;54603;45.638;11.714;2023-05-16T00:27:25;19.90;72.38
67804;SHT31;54603;45.638;11.714;2023-05-16T00:29:51;19.90;72.39
67804;SHT31;54603;45.638;11.714;2023-05-16T00:32:17;19.89;72.36
67804;SHT31;54603;45.638;11.714;2023-05-16T00:34:43;19.89;72.38
67804;SHT31;54603;45.638;11.714;2023-05-16T00:37:09;19.89;72.37
67804;SHT31;54603;45.638;11.714;2023-05-16T00:39:35;19.89;72.38
67804;SHT31;54603;45.638;11.714;2023-05-16T00:42:01;19.88;72.32
67804;SHT31;54603;45.638;11.714;2023-05-16T00:44:27;19.88;72.33
67804;SHT31;54603;45.638;11.714;2023-05-16T00:46:53;19.88;72.33
67804;SHT31;54603;45.638;11.714;2023-05-16T00:49:19;19.88;72.35
67804;SHT31;54603;45.638;11.714;2023-05-16T00:51:45;19.87;72.32
67804;SHT31;54603;45.638;11.714;2023-05-16T00:54:12;19.87;72.32
67804;SHT31;54603;45.638;11.714;2023-05-16T00:56:39;19.87;72.34
67804;SHT31;54603;45.638;11.714;2023-05-16T00:59:04;19.87;72.34
67804;SHT31;54603;45.638;11.714;2023-05-16T01:01:31;19.87;72.34
67804;SHT31;54603;45.638;11.714;2023-05-16T01:03:58;19.87;72.33
67804;SHT31;54603;45.638;11.714;2023-05-16T01:06:25;19.87;72.34
67804;SHT31;54603;45.638;11.714;2023-05-16T01:08:51;19.86;72.32
67804;SHT31;54603;45.638;11.714;2023-05-16T01:14:05;19.86;72.31
67804;SHT31;54603;45.638;11.714;2023-05-16T01:19:54;19.86;72.39
67804;SHT31;54603;45.638;11.714;2023-05-16T01:22:29;19.85;72.38
67804;SHT31;54603;45.638;11.714;2023-05-16T01:28:05;19.85;72.38
67804;SHT31;54603;45.638;11.714;2023-05-16T01:30:34;19.84;72.38
67804;SHT31;54603;45.638;11.714;2023-05-16T01:33:03;19.84;72.40
67804;SHT31;54603;45.638;11.714;2023-05-16T01:35:29;19.84;72.38
67804;SHT31;54603;45.638;11.714;2023-05-16T01:38:38;19.84;72.35
67804;SHT31;54603;45.638;11.714;2023-05-16T01:40:59;19.84;72.36
67804;SHT31;54603;45.638;11.714;2023-05-16T01:44:18;19.83;72.34
67804;SHT31;54603;45.638;11.714;2023-05-16T01:47:01;19.83;72.38
67804;SHT31;54603;45.638;11.714;2023-05-16T01:50:18;19.83;72.38
67804;SHT31;54603;45.638;11.714;2023-05-16T01:55:38;19.83;72.37
67804;SHT31;54603;45.638;11.714;2023-05-16T01:58:12;19.83;72.37
67804;SHT31;54603;45.638;11.714;2023-05-16T02:00:40;19.83;72.37
67804;SHT31;54603;45.638;11.714;2023-05-16T02:03:06;19.83;72.37
67804;SHT31;54603;45.638;11.714;2023-05-16T02:05:33;19.82;72.31
67804;SHT31;54603;45.638;11.714;2023-05-16T02:07:59;19.83;72.34
67804;SHT31;54603;45.638;11.714;2023-05-16T02:10:26;19.83;72.31
67804;SHT31;54603;45.638;11.714;2023-05-16T02:12:52;19.82;72.32
67804;SHT31;54603;45.638;11.714;2023-05-16T02:15:18;19.83;72.33
67804;SHT31;54603;45.638;11.714;2023-05-16T02:17:44;19.82;72.31
67804;SHT31;54603;45.638;11.714;2023-05-16T02:20:11;19.81;72.30
67804;SHT31;54603;45.638;11.714;2023-05-16T02:22:38;19.82;72.30
67804;SHT31;54603;45.638;11.714;2023-05-16T02:25:04;19.81;72.32
67804;SHT31;54603;45.638;11.714;2023-05-16T02:27:31;19.81;72.30
67804;SHT31;54603;45.638;11.714;2023-05-16T02:29:57;19.81;72.30
67804;SHT31;54603;45.638;11.714;2023-05-16T02:32:23;19.82;72.30
67804;SHT31;54603;45.638;11.714;2023-05-16T02:34:49;19.81;72.30
67804;SHT31;54603;45.638;11.714;2023-05-16T02:37:15;19.81;72.30
67804;SHT31;54603;45.638;11.714;2023-05-16T02:39:40;19.81;72.29
67804;SHT31;54603;45.638;11.714;2023-05-16T02:42:06;19.81;72.30
67804;SHT31;54603;45.638;11.714;2023-05-16T02:44:33;19.80;72.29
67804;SHT31;54603;45.638;11.714;2023-05-16T02:46:58;19.80;72.28
67804;SHT31;54603;45.638;11.714;2023-05-16T02:49:24;19.79;72.28
67804;SHT31;54603;45.638;11.714;2023-05-16T02:51:50;19.80;72.26
67804;SHT31;54603;45.638;11.714;2023-05-16T02:54:16;19.80;72.24
67804;SHT31;54603;45.638;11.714;2023-05-16T02:56:42;19.79;72.24
67804;SHT31;54603;45.638;11.714;2023-05-16T02:59:09;19.79;72.21
67804;SHT31;54603;45.638;11.714;2023-05-16T03:01:35;19.78;72.06
67804;SHT31;54603;45.638;11.714;2023-05-16T03:04:02;19.78;72.10
67804;SHT31;54603;45.638;11.714;2023-05-16T03:06:28;19.77;72.10
67804;SHT31;54603;45.638;11.714;2023-05-16T03:08:54;19.77;72.10
67804;SHT31;54603;45.638;11.714;2023-05-16T03:11:20;19.77;72.10
67804;SHT31;54603;45.638;11.714;2023-05-16T03:13:47;19.78;72.10
67804;SHT31;54603;45.638;11.714;2023-05-16T03:16:13;19.77;72.10
67804;SHT31;54603;45.638;11.714;2023-05-16T03:18:41;19.77;72.10
67804;SHT31;54603;45.638;11.714;2023-05-16T03:21:07;19.76;72.11
67804;SHT31;54603;45.638;11.714;2023-05-16T03:23:33;19.76;72.13
67804;SHT31;54603;45.638;11.714;2023-05-16T03:25:59;19.75;72.15
67804;SHT31;54603;45.638;11.714;2023-05-16T03:28:25;19.76;72.20
67804;SHT31;54603;45.638;11.714;2023-05-16T03:30:52;19.75;72.17
67804;SHT31;54603;45.638;11.714;2023-05-16T03:33:17;19.76;72.18
67804;SHT31;54603;45.638;11.714;2023-05-16T03:35:43;19.76;72.20
67804;SHT31;54603;45.638;11.714;2023-05-16T03:38:10;19.75;72.20
67804;SHT31;54603;45.638;11.714;2023-05-16T03:40:37;19.75;72.20
67804;SHT31;54603;45.638;11.714;2023-05-16T03:43:02;19.76;72.20
67804;SHT31;54603;45.638;11.714;2023-05-16T03:45:29;19.75;72.20
67804;SHT31;54603;45.638;11.714;2023-05-16T03:47:56;19.74;72.20
67804;SHT31;54603;45.638;11.714;2023-05-16T03:50:22;19.74;72.20
67804;SHT31;54603;45.638;11.714;2023-05-16T03:52:48;19.74;72.20
67804;SHT31;54603;45.638;11.714;2023-05-16T03:55:14;19.74;72.20
67804;SHT31;54603;45.638;11.714;2023-05-16T03:57:41;19.75;72.19
67804;SHT31;54603;45.638;11.714;2023-05-16T04:00:09;19.74;72.20
67804;SHT31;54603;45.638;11.714;2023-05-16T04:02:39;19.73;72.20
67804;SHT31;54603;45.638;11.714;2023-05-16T04:05:07;19.73;72.18
67804;SHT31;54603;45.638;11.714;2023-05-16T04:07:34;19.73;72.13
67804;SHT31;54603;45.638;11.714;2023-05-16T04:10:02;19.73;72.13
67804;SHT31;54603;45.638;11.714;2023-05-16T04:12:29;19.72;72.14
67804;SHT31;54603;45.638;11.714;2023-05-16T04:14:55;19.72;72.19
67804;SHT31;54603;45.638;11.714;2023-05-16T04:17:21;19.72;72.20
67804;SHT31;54603;45.638;11.714;2023-05-16T04:19:46;19.72;72.20
67804;SHT31;54603;45.638;11.714;2023-05-16T04:22:12;19.71;72.20
67804;SHT31;54603;45.638;11.714;2023-05-16T04:24:38;19.72;72.14
67804;SHT31;54603;45.638;11.714;2023-05-16T04:27:04;19.72;72.11
67804;SHT31;54603;45.638;11.714;2023-05-16T04:29:33;19.71;72.11
67804;SHT31;54603;45.638;11.714;2023-05-16T04:32:00;19.71;72.10
67804;SHT31;54603;45.638;11.714;2023-05-16T04:34:27;19.70;72.16
67804;SHT31;54603;45.638;11.714;2023-05-16T04:36:53;19.70;72.20
67804;SHT31;54603;45.638;11.714;2023-05-16T04:39:19;19.71;72.20
67804;SHT31;54603;45.638;11.714;2023-05-16T04:41:45;19.70;72.20
67804;SHT31;54603;45.638;11.714;2023-05-16T04:44:11;19.70;72.20
67804;SHT31;54603;45.638;11.714;2023-05-16T04:46:37;19.69;72.20
67804;SHT31;54603;45.638;11.714;2023-05-16T04:49:03;19.70;72.20
67804;SHT31;54603;45.638;11.714;2023-05-16T04:51:29;19.69;72.20
67804;SHT31;54603;45.638;11.714;2023-05-16T04:53:56;19.69;72.20
67804;SHT31;54603;45.638;11.714;2023-05-16T04:56:22;19.69;72.21
67804;SHT31;54603;45.638;11.714;2023-05-16T04:58:48;19.68;72.21
67804;SHT31;54603;45.638;11.714;2023-05-16T05:01:14;19.68;72.22
67804;SHT31;54603;45.638;11.714;2023-05-16T05:03:41;19.69;72.20
67804;SHT31;54603;45.638;11.714;2023-05-16T05:06:07;19.68;72.20
67804;SHT31;54603;45.638;11.714;2023-05-16T05:08:33;19.68;72.21
67804;SHT31;54603;45.638;11.714;2023-05-16T05:10:59;19.67;72.20
67804;SHT31;54603;45.638;11.714;2023-05-16T05:13:24;19.68;72.22
67804;SHT31;54603;45.638;11.714;2023-05-16T05:15:50;19.68;72.22
67804;SHT31;54603;45.638;11.714;2023-05-16T05:18:17;19.67;72.24
67804;SHT31;54603;45.638;11.714;2023-05-16T05:20:43;19.67;72.21
67804;SHT31;54603;45.638;11.714;2023-05-16T05:23:09;19.68;72.20
67804;SHT31;54603;45.638;11.714;2023-05-16T05:25:35;19.67;72.20
67804;SHT31;54603;45.638;11.714;2023-05-16T05:28:01;19.67;72.20
67804;SHT31;54603;45.638;11.714;2023-05-16T05:30:28;19.67;72.20
67804;SHT31;54603;45.638;11.714;2023-05-16T05:32:54;19.67;72.20
67804;SHT31;54603;45.638;11.714;2023-05-16T05:35:21;19.67;72.20
67804;SHT31;54603;45.638;11.714;2023-05-16T05:37:47;19.67;72.20
67804;SHT31;54603;45.638;11.714;2023-05-16T05:40:13;19.67;72.17
67804;SHT31;54603;45.638;11.714;2023-05-16T05:42:39;19.66;72.19
67804;SHT31;54603;45.638;11.714;2023-05-16T05:45:05;19.66;72.17
67804;SHT31;54603;45.638;11.714;2023-05-16T05:47:32;19.66;72.19
67804;SHT31;54603;45.638;11.714;2023-05-16T05:49:58;19.65;72.19
67804;SHT31;54603;45.638;11.714;2023-05-16T05:52:24;19.66;72.20
67804;SHT31;54603;45.638;11.714;2023-05-16T05:54:53;19.66;72.20
67804;SHT31;54603;45.638;11.714;2023-05-16T05:57:19;19.65;72.20
67804;SHT31;54603;45.638;11.714;2023-05-16T05:59:45;19.66;72.21
67804;SHT31;54603;45.638;11.714;2023-05-16T06:02:11;19.65;72.20
67804;SHT31;54603;45.638;11.714;2023-05-16T06:04:38;19.66;72.22
67804;SHT31;54603;45.638;11.714;2023-05-16T06:07:07;19.65;72.22
67804;SHT31;54603;45.638;11.714;2023-05-16T06:09:32;19.66;72.24
67804;SHT31;54603;45.638;11.714;2023-05-16T06:11:58;19.66;72.24
67804;SHT31;54603;45.638;11.714;2023-05-16T06:14:27;19.66;72.23
67804;SHT31;54603;45.638;11.714;2023-05-16T06:16:53;19.65;72.40
67804;SHT31;54603;45.638;11.714;2023-05-16T06:19:19;19.67;72.58
67804;SHT31;54603;45.638;11.714;2023-05-16T06:21:45;19.67;72.65
67804;SHT31;54603;45.638;11.714;2023-05-16T06:24:10;19.68;72.67
67804;SHT31;54603;45.638;11.714;2023-05-16T06:26:38;19.68;72.77
67804;SHT31;54603;45.638;11.714;2023-05-16T06:29:04;19.68;72.78
67804;SHT31;54603;45.638;11.714;2023-05-16T06:31:30;19.68;72.83
67804;SHT31;54603;45.638;11.714;2023-05-16T06:33:56;19.70;72.90
67804;SHT31;54603;45.638;11.714;2023-05-16T06:36:22;19.68;72.95
67804;SHT31;54603;45.638;11.714;2023-05-16T06:38:48;19.69;72.98
67804;SHT31;54603;45.638;11.714;2023-05-16T06:41:15;19.69;73.00
67804;SHT31;54603;45.638;11.714;2023-05-16T06:43:41;19.69;73.06
67804;SHT31;54603;45.638;11.714;2023-05-16T06:46:07;19.69;73.06
67804;SHT31;54603;45.638;11.714;2023-05-16T06:48:33;19.70;73.04
67804;SHT31;54603;45.638;11.714;2023-05-16T06:50:58;19.70;73.09
67804;SHT31;54603;45.638;11.714;2023-05-16T06:53:25;19.70;73.08
67804;SHT31;54603;45.638;11.714;2023-05-16T06:55:51;19.71;73.06
67804;SHT31;54603;45.638;11.714;2023-05-16T06:58:17;19.70;73.04
67804;SHT31;54603;45.638;11.714;2023-05-16T07:00:43;19.70;73.08
67804;SHT31;54603;45.638;11.714;2023-05-16T07:03:09;19.70;73.05
67804;SHT31;54603;45.638;11.714;2023-05-16T07:05:35;19.70;73.01
67804;SHT31;54603;45.638;11.714;2023-05-16T07:08:01;19.71;73.04
67804;SHT31;54603;45.638;11.714;2023-05-16T07:10:27;19.71;73.04
67804;SHT31;54603;45.638;11.714;2023-05-16T07:12:53;19.70;73.09
67804;SHT31;54603;45.638;11.714;2023-05-16T07:15:19;19.70;73.10
67804;SHT31;54603;45.638;11.714;2023-05-16T07:17:45;19.71;73.14
67804;SHT31;54603;45.638;11.714;2023-05-16T07:20:12;19.70;73.18
67804;SHT31;54603;45.638;11.714;2023-05-16T07:22:39;19.71;73.20
67804;SHT31;54603;45.638;11.714;2023-05-16T07:25:05;19.71;73.20
67804;SHT31;54603;45.638;11.714;2023-05-16T07:27:39;19.71;73.22
67804;SHT31;54603;45.638;11.714;2023-05-16T07:30:12;19.71;73.25
67804;SHT31;54603;45.638;11.714;2023-05-16T07:32:39;19.72;73.22
67804;SHT31;54603;45.638;11.714;2023-05-16T07:35:05;19.71;73.20
67804;SHT31;54603;45.638;11.714;2023-05-16T07:37:32;19.72;73.21
67804;SHT31;54603;45.638;11.714;2023-05-16T07:39:58;19.73;73.22
67804;SHT31;54603;45.638;11.714;2023-05-16T07:42:24;19.72;73.20
67804;SHT31;54603;45.638;11.714;2023-05-16T07:44:49;19.72;73.20
67804;SHT31;54603;45.638;11.714;2023-05-16T07:47:15;19.73;73.20
67804;SHT31;54603;45.638;11.714;2023-05-16T07:49:41;19.73;73.18
67804;SHT31;54603;45.638;11.714;2023-05-16T07:52:07;19.73;73.14
67804;SHT31;54603;45.638;11.714;2023-05-16T07:54:34;19.74;73.13
67804;SHT31;54603;45.638;11.714;2023-05-16T07:57:00;19.73;73.13
67804;SHT31;54603;45.638;11.714;2023-05-16T07:59:27;19.74;73.16
67804;SHT31;54603;45.638;11.714;2023-05-16T08:01:53;19.74;73.12
67804;SHT31;54603;45.638;11.714;2023-05-16T08:04:20;19.74;73.10
67804;SHT31;54603;45.638;11.714;2023-05-16T08:06:46;19.73;73.10
67804;SHT31;54603;45.638;11.714;2023-05-16T08:09:12;19.74;73.10
67804;SHT31;54603;45.638;11.714;2023-05-16T08:11:38;19.75;73.10
67804;SHT31;54603;45.638;11.714;2023-05-16T08:14:04;19.74;73.10
67804;SHT31;54603;45.638;11.714;2023-05-16T08:16:30;19.74;73.10
67804;SHT31;54603;45.638;11.714;2023-05-16T08:18:56;19.74;73.08
67804;SHT31;54603;45.638;11.714;2023-05-16T08:21:22;19.75;73.07
67804;SHT31;54603;45.638;11.714;2023-05-16T08:23:48;19.75;73.04
67804;SHT31;54603;45.638;11.714;2023-05-16T08:26:15;19.75;73.03
67804;SHT31;54603;45.638;11.714;2023-05-16T08:28:42;19.74;73.00
67804;SHT31;54603;45.638;11.714;2023-05-16T08:31:08;19.75;73.00
67804;SHT31;54603;45.638;11.714;2023-05-16T08:33:34;19.75;73.00
67804;SHT31;54603;45.638;11.714;2023-05-16T08:36:00;19.74;72.93
67804;SHT31;54603;45.638;11.714;2023-05-16T08:38:26;19.74;72.91
67804;SHT31;54603;45.638;11.714;2023-05-16T08:40:52;19.74;72.90
67804;SHT31;54603;45.638;11.714;2023-05-16T08:43:18;19.75;72.87
67804;SHT31;54603;45.638;11.714;2023-05-16T08:45:45;19.75;72.84
67804;SHT31;54603;45.638;11.714;2023-05-16T08:48:11;19.74;72.84
67804;SHT31;54603;45.638;11.714;2023-05-16T08:50:39;19.75;72.84
67804;SHT31;54603;45.638;11.714;2023-05-16T08:53:07;19.75;72.82
67804;SHT31;54603;45.638;11.714;2023-05-16T08:55:37;19.75;72.83
67804;SHT31;54603;45.638;11.714;2023-05-16T08:58:06;19.76;72.85
67804;SHT31;54603;45.638;11.714;2023-05-16T09:00:33;19.77;72.88
67804;SHT31;54603;45.638;11.714;2023-05-16T09:03:00;19.78;72.88
67804;SHT31;54603;45.638;11.714;2023-05-16T09:05:28;19.79;72.90
67804;SHT31;54603;45.638;11.714;2023-05-16T09:07:54;19.79;72.90
67804;SHT31;54603;45.638;11.714;2023-05-16T09:10:20;19.79;72.90
67804;SHT31;54603;45.638;11.714;2023-05-16T09:12:47;19.80;72.90
67804;SHT31;54603;45.638;11.714;2023-05-16T09:15:12;19.80;72.90
67804;SHT31;54603;45.638;11.714;2023-05-16T09:17:39;19.82;72.90
67804;SHT31;54603;45.638;11.714;2023-05-16T09:20:13;19.82;72.92
67804;SHT31;54603;45.638;11.714;2023-05-16T09:22:50;19.81;72.91
67804;SHT31;54603;45.638;11.714;2023-05-16T09:25:25;19.81;72.90
67804;SHT31;54603;45.638;11.714;2023-05-16T09:27:54;19.81;72.90
67804;SHT31;54603;45.638;11.714;2023-05-16T09:30:22;19.82;72.87
67804;SHT31;54603;45.638;11.714;2023-05-16T09:32:54;19.81;72.87
67804;SHT31;54603;45.638;11.714;2023-05-16T09:35:21;19.82;72.86
67804;SHT31;54603;45.638;11.714;2023-05-16T09:37:48;19.82;72.83
67804;SHT31;54603;45.638;11.714;2023-05-16T09:40:21;19.82;72.80
67804;SHT31;54603;45.638;11.714;2023-05-16T09:43:06;19.83;72.80
67804;SHT31;54603;45.638;11.714;2023-05-16T09:45:33;19.82;72.79
67804;SHT31;54603;45.638;11.714;2023-05-16T09:48:01;19.82;72.77
67804;SHT31;54603;45.638;11.714;2023-05-16T09:50:33;19.82;72.79
67804;SHT31;54603;45.638;11.714;2023-05-16T09:53:01;19.83;72.79
67804;SHT31;54603;45.638;11.714;2023-05-16T09:55:27;19.82;72.76
67804;SHT31;54603;45.638;11.714;2023-05-16T09:57:54;19.83;72.74
67804;SHT31;54603;45.638;11.714;2023-05-16T10:00:20;19.84;72.72
67804;SHT31;54603;45.638;11.714;2023-05-16T10:02:46;19.84;72.73
67804;SHT31;54603;45.638;11.714;2023-05-16T10:05:13;19.83;72.71
67804;SHT31;54603;45.638;11.714;2023-05-16T10:07:40;19.83;72.70
67804;SHT31;54603;45.638;11.714;2023-05-16T10:10:08;19.83;72.70
67804;SHT31;54603;45.638;11.714;2023-05-16T10:12:35;19.83;72.70
67804;SHT31;54603;45.638;11.714;2023-05-16T10:15:03;19.84;72.70
67804;SHT31;54603;45.638;11.714;2023-05-16T10:17:31;19.84;72.70
67804;SHT31;54603;45.638;11.714;2023-05-16T10:20:01;19.85;72.70
67804;SHT31;54603;45.638;11.714;2023-05-16T10:22:33;19.84;72.62
67804;SHT31;54603;45.638;11.714;2023-05-16T10:25:07;19.85;72.60
67804;SHT31;54603;45.638;11.714;2023-05-16T10:27:53;19.85;72.61
67804;SHT31;54603;45.638;11.714;2023-05-16T10:30:19;19.85;72.65
67804;SHT31;54603;45.638;11.714;2023-05-16T10:32:46;19.84;72.68
67804;SHT31;54603;45.638;11.714;2023-05-16T10:35:14;19.85;72.70
67804;SHT31;54603;45.638;11.714;2023-05-16T10:37:41;19.84;72.71
67804;SHT31;54603;45.638;11.714;2023-05-16T10:40:07;19.86;72.71
67804;SHT31;54603;45.638;11.714;2023-05-16T10:42:34;19.86;72.70
67804;SHT31;54603;45.638;11.714;2023-05-16T10:45:16;19.85;72.70
67804;SHT31;54603;45.638;11.714;2023-05-16T10:47:50;19.86;72.74
67804;SHT31;54603;45.638;11.714;2023-05-16T10:50:38;19.86;72.75
67804;SHT31;54603;45.638;11.714;2023-05-16T11:06:26;19.84;72.80
67804;SHT31;54603;45.638;11.714;2023-05-16T11:11:41;19.84;72.80
67804;SHT31;54603;45.638;11.714;2023-05-16T11:17:01;19.84;72.81
67804;SHT31;54603;45.638;11.714;2023-05-16T11:27:31;19.83;72.87
67804;SHT31;54603;45.638;11.714;2023-05-16T11:32:34;19.83;72.87
67804;SHT31;54603;45.638;11.714;2023-05-16T11:35:02;19.83;72.86
67804;SHT31;54603;45.638;11.714;2023-05-16T11:37:33;19.83;72.86
67804;SHT31;54603;45.638;11.714;2023-05-16T11:40:04;19.83;72.83
67804;SHT31;54603;45.638;11.714;2023-05-16T11:42:36;19.83;72.83
67804;SHT31;54603;45.638;11.714;2023-05-16T11:45:06;19.83;72.80
67804;SHT31;54603;45.638;11.714;2023-05-16T11:47:35;19.83;72.80
67804;SHT31;54603;45.638;11.714;2023-05-16T11:50:04;19.84;72.80
67804;SHT31;54603;45.638;11.714;2023-05-16T11:52:35;19.83;72.79
67804;SHT31;54603;45.638;11.714;2023-05-16T11:55:03;19.83;72.74
67804;SHT31;54603;45.638;11.714;2023-05-16T11:57:31;19.82;72.71
67804;SHT31;54603;45.638;11.714;2023-05-16T12:00:13;19.83;72.70
67804;SHT31;54603;45.638;11.714;2023-05-16T12:02:44;19.83;72.70
67804;SHT31;54603;45.638;11.714;2023-05-16T12:05:12;19.84;72.70
67804;SHT31;54603;45.638;11.714;2023-05-16T12:07:39;19.84;72.70
67804;SHT31;54603;45.638;11.714;2023-05-16T12:10:08;19.85;72.70
67804;SHT31;54603;45.638;11.714;2023-05-16T12:12:38;19.84;72.69
67804;SHT31;54603;45.638;11.714;2023-05-16T12:15:07;19.84;72.66
67804;SHT31;54603;45.638;11.714;2023-05-16T12:17:36;19.85;72.70
67804;SHT31;54603;45.638;11.714;2023-05-16T12:20:04;19.85;72.66
67804;SHT31;54603;45.638;11.714;2023-05-16T12:22:32;19.84;72.62
67804;SHT31;54603;45.638;11.714;2023-05-16T12:24:59;19.86;72.59
67804;SHT31;54603;45.638;11.714;2023-05-16T12:27:43;19.86;72.59
67804;SHT31;54603;45.638;11.714;2023-05-16T12:30:09;19.86;72.60
67804;SHT31;54603;45.638;11.714;2023-05-16T12:32:36;19.86;72.60
67804;SHT31;54603;45.638;11.714;2023-05-16T12:35:02;19.86;72.53
67804;SHT31;54603;45.638;11.714;2023-05-16T12:37:29;19.86;72.51
67804;SHT31;54603;45.638;11.714;2023-05-16T12:40:01;19.87;72.50
67804;SHT31;54603;45.638;11.714;2023-05-16T12:42:28;19.86;72.44
67804;SHT31;54603;45.638;11.714;2023-05-16T12:44:55;19.86;72.43
67804;SHT31;54603;45.638;11.714;2023-05-16T12:47:21;19.87;72.41
67804;SHT31;54603;45.638;11.714;2023-05-16T12:49:47;19.87;72.41
67804;SHT31;54603;45.638;11.714;2023-05-16T12:52:18;19.88;72.40
67804;SHT31;54603;45.638;11.714;2023-05-16T12:54:46;19.88;72.41
67804;SHT31;54603;45.638;11.714;2023-05-16T12:57:12;19.89;72.40
67804;SHT31;54603;45.638;11.714;2023-05-16T12:59:39;19.89;72.41
67804;SHT31;54603;45.638;11.714;2023-05-16T13:02:06;19.89;72.40
67804;SHT31;54603;45.638;11.714;2023-05-16T13:04:32;19.91;72.41
67804;SHT31;54603;45.638;11.714;2023-05-16T13:06:58;19.91;72.42
67804;SHT31;54603;45.638;11.714;2023-05-16T13:09:24;19.92;72.40
67804;SHT31;54603;45.638;11.714;2023-05-16T13:11:51;19.92;72.40
67804;SHT31;54603;45.638;11.714;2023-05-16T13:14:18;19.92;72.40
67804;SHT31;54603;45.638;11.714;2023-05-16T13:16:43;19.93;72.39
67804;SHT31;54603;45.638;11.714;2023-05-16T13:19:09;19.93;72.35
67804;SHT31;54603;45.638;11.714;2023-05-16T13:21:35;19.93;72.30
67804;SHT31;54603;45.638;11.714;2023-05-16T13:24:01;19.94;72.25
67804;SHT31;54603;45.638;11.714;2023-05-16T13:26:28;19.94;72.07
67804;SHT31;54603;45.638;11.714;2023-05-16T13:28:54;19.94;72.01
67804;SHT31;54603;45.638;11.714;2023-05-16T13:31:20;19.95;71.93
67804;SHT31;54603;45.638;11.714;2023-05-16T13:33:49;19.95;71.91
67804;SHT31;54603;45.638;11.714;2023-05-16T13:36:15;19.96;71.88
67804;SHT31;54603;45.638;11.714;2023-05-16T13:38:41;19.95;71.90
67804;SHT31;54603;45.638;11.714;2023-05-16T13:41:07;19.96;71.91
67804;SHT31;54603;45.638;11.714;2023-05-16T13:43:33;19.96;71.91
67804;SHT31;54603;45.638;11.714;2023-05-16T13:45:59;19.97;71.90
67804;SHT31;54603;45.638;11.714;2023-05-16T13:48:24;19.96;71.90
67804;SHT31;54603;45.638;11.714;2023-05-16T13:50:50;19.97;71.89
67804;SHT31;54603;45.638;11.714;2023-05-16T13:53:17;19.98;71.85
67804;SHT31;54603;45.638;11.714;2023-05-16T13:55:43;19.98;71.80
67804;SHT31;54603;45.638;11.714;2023-05-16T13:58:09;19.97;71.79
67804;SHT31;54603;45.638;11.714;2023-05-16T14:00:35;19.98;71.77
67804;SHT31;54603;45.638;11.714;2023-05-16T14:03:01;19.99;71.72
67804;SHT31;54603;45.638;11.714;2023-05-16T14:05:26;19.98;71.71
67804;SHT31;54603;45.638;11.714;2023-05-16T14:07:53;19.99;71.70
67804;SHT31;54603;45.638;11.714;2023-05-16T14:10:19;20.00;71.64
67804;SHT31;54603;45.638;11.714;2023-05-16T14:12:44;20.00;71.66
67804;SHT31;54603;45.638;11.714;2023-05-16T14:15:10;20.00;71.67
67804;SHT31;54603;45.638;11.714;2023-05-16T14:17:36;20.00;71.64
67804;SHT31;54603;45.638;11.714;2023-05-16T14:20:02;20.00;71.64
67804;SHT31;54603;45.638;11.714;2023-05-16T14:22:33;20.01;71.63
67804;SHT31;54603;45.638;11.714;2023-05-16T14:25:00;20.00;71.64
67804;SHT31;54603;45.638;11.714;2023-05-16T14:27:25;20.01;71.63
67804;SHT31;54603;45.638;11.714;2023-05-16T14:29:51;20.01;71.61
67804;SHT31;54603;45.638;11.714;2023-05-16T14:32:17;20.00;71.63
67804;SHT31;54603;45.638;11.714;2023-05-16T14:34:43;20.01;71.61
67804;SHT31;54603;45.638;11.714;2023-05-16T14:37:09;20.01;71.67
67804;SHT31;54603;45.638;11.714;2023-05-16T14:39:35;20.01;71.69
67804;SHT31;54603;45.638;11.714;2023-05-16T14:42:01;20.01;71.64
67804;SHT31;54603;45.638;11.714;2023-05-16T14:44:27;20.02;71.60
67804;SHT31;54603;45.638;11.714;2023-05-16T14:46:53;20.01;71.59
67804;SHT31;54603;45.638;11.714;2023-05-16T14:49:18;20.03;71.57
67804;SHT31;54603;45.638;11.714;2023-05-16T14:51:44;20.02;71.52
67804;SHT31;54603;45.638;11.714;2023-05-16T14:54:13;20.02;71.50
67804;SHT31;54603;45.638;11.714;2023-05-16T14:56:40;20.03;71.48
67804;SHT31;54603;45.638;11.714;2023-05-16T14:59:07;20.02;71.50
67804;SHT31;54603;45.638;11.714;2023-05-16T15:01:32;20.03;71.50
67804;SHT31;54603;45.638;11.714;2023-05-16T15:03:58;20.03;71.48
67804;SHT31;54603;45.638;11.714;2023-05-16T15:06:24;20.03;71.47
67804;SHT31;54603;45.638;11.714;2023-05-16T15:08:50;20.02;71.44
67804;SHT31;54603;45.638;11.714;2023-05-16T15:11:16;20.03;71.46
67804;SHT31;54603;45.638;11.714;2023-05-16T15:13:42;20.03;71.46
67804;SHT31;54603;45.638;11.714;2023-05-16T15:16:08;20.04;71.50
67804;SHT31;54603;45.638;11.714;2023-05-16T15:18:33;20.03;71.48
67804;SHT31;54603;45.638;11.714;2023-05-16T15:20:59;20.03;71.45
67804;SHT31;54603;45.638;11.714;2023-05-16T15:23:25;20.03;71.47
67804;SHT31;54603;45.638;11.714;2023-05-16T15:25:51;20.02;71.48
67804;SHT31;54603;45.638;11.714;2023-05-16T15:28:18;20.02;71.42
67804;SHT31;54603;45.638;11.714;2023-05-16T15:30:43;20.02;71.40
67804;SHT31;54603;45.638;11.714;2023-05-16T15:33:09;20.01;71.39
67804;SHT31;54603;45.638;11.714;2023-05-16T15:35:35;20.00;71.39
67804;SHT31;54603;45.638;11.714;2023-05-16T15:38:01;20.01;71.40
67804;SHT31;54603;45.638;11.714;2023-05-16T15:40:27;20.00;71.43
67804;SHT31;54603;45.638;11.714;2023-05-16T15:42:53;20.00;71.50
67804;SHT31;54603;45.638;11.714;2023-05-16T15:45:19;20.00;71.50
67804;SHT31;54603;45.638;11.714;2023-05-16T15:47:45;19.99;71.53
67804;SHT31;54603;45.638;11.714;2023-05-16T15:50:12;19.99;71.58
67804;SHT31;54603;45.638;11.714;2023-05-16T15:52:38;19.99;71.59
67804;SHT31;54603;45.638;11.714;2023-05-16T15:55:05;19.98;71.60
67804;SHT31;54603;45.638;11.714;2023-05-16T15:57:31;19.98;71.63